METAR Data
IDs: Format: Raw Decoded Include TAF

Data at: 0544 UTC 26 Sep 2018

KLHM 260535Z AUTO 00000KT 10SM CLR 17/05 A2988 RMK AO1
KLHM 260515Z AUTO 00000KT 10SM CLR 15/06 A2988 RMK AO1
KLHM 260455Z AUTO 11005KT 10SM CLR 16/06 A2987 RMK AO1
KLHM 260435Z AUTO 08005KT 10SM CLR 16/07 A2988 RMK AO1
KLHM 260415Z AUTO 05007KT 10SM CLR 15/06 A2988 RMK AO1
KLHM 260355Z AUTO 09005KT 10SM CLR 17/07 A2987 RMK AO1
KLHM 260335Z AUTO 09004KT 10SM CLR 18/06 A2986 RMK AO1
KLHM 260315Z AUTO 07004KT 10SM CLR 18/07 A2986 RMK AO1
KLHM 260255Z AUTO 00000KT 10SM CLR 24/05 A2985 RMK AO1
KLHM 260235Z AUTO 00000KT 10SM CLR 23/03 A2985 RMK AO1
KLHM 260215Z AUTO 00000KT 10SM CLR 27/02 A2985 RMK AO1
KLHM 260155Z AUTO 00000KT 10SM CLR 28/02 A2985 RMK AO1
KLHM 260135Z AUTO 00000KT 10SM CLR 31/02 A2985 RMK AO1
KLHM 260115Z AUTO 00000KT 10SM CLR 32/03 A2985 RMK AO1
KLHM 260055Z AUTO 00000KT 10SM CLR 32/03 A2985 RMK AO1
KLHM 260035Z AUTO 00000KT 10SM CLR 32/02 A2985 RMK AO1
KLHM 260015Z AUTO 00000KT 10SM CLR 33/00 A2985 RMK AO1
KLHM 252355Z AUTO 00000KT 10SM CLR 33/01 A2985 RMK AO1
KLHM 252335Z AUTO 32003KT 10SM CLR 33/01 A2985 RMK AO1
KLHM 252315Z AUTO 23003KT 10SM CLR 33/01 A2985 RMK AO1
KLHM 252255Z AUTO 22003KT 10SM CLR 33/02 A2985 RMK AO1
KLHM 252235Z AUTO 25003KT 10SM CLR 33/00 A2986 RMK AO1
KLHM 252215Z AUTO 00000KT 10SM CLR 33/01 A2986 RMK AO1
KLHM 252155Z AUTO 28004KT 10SM CLR 32/01 A2987 RMK AO1
KLHM 252135Z AUTO 28004KT 10SM CLR 32/00 A2987 RMK AO1
KLHM 252115Z AUTO 00000KT 10SM CLR 32/00 A2988 RMK AO1
KLHM 252055Z AUTO 00000KT 10SM CLR 31/01 A2988 RMK AO1
KLHM 252035Z AUTO 29005KT 10SM CLR 31/00 A2988 RMK AO1
KLHM 252015Z AUTO 32005KT 10SM CLR 30/02 A2989 RMK AO1
KLHM 251955Z AUTO 34003KT 10SM CLR 29/02 A2990 RMK AO1
KLHM 251935Z AUTO 31005KT 10SM CLR 28/03 A2990 RMK AO1
KLHM 251915Z AUTO 00000KT 10SM CLR 27/05 A2991 RMK AO1
KLHM 251855Z AUTO 30003KT 10SM CLR 27/03 A2991 RMK AO1
KLHM 251835Z AUTO 00000KT 10SM CLR 25/05 A2991 RMK AO1
KLHM 251815Z AUTO 24003KT 10SM CLR 25/06 A2991 RMK AO1
KLHM 251755Z AUTO 24003KT 10SM CLR 24/05 A2991 RMK AO1
KLHM 251735Z AUTO 00000KT 10SM CLR 23/03 A2992 RMK AO1
KLHM 251715Z AUTO 24003KT 10SM CLR 22/03 A2991 RMK AO1
KLHM 251655Z AUTO 00000KT 10SM CLR 22/03 A2991 RMK AO1
KLHM 251635Z AUTO 00000KT 10SM CLR 20/03 A2991 RMK AO1
KLHM 251615Z AUTO 00000KT 10SM CLR 20/03 A2991 RMK AO1
KLHM 251555Z AUTO 00000KT 10SM CLR 17/03 A2991 RMK AO1
KLHM 251535Z AUTO 00000KT 10SM CLR 15/05 A2991 RMK AO1
KLHM 251515Z AUTO 00000KT 10SM CLR 13/06 A2990 RMK AO1
KLHM 251455Z AUTO 00000KT 10SM CLR 11/06 A2989 RMK AO1
KLHM 251435Z AUTO 00000KT 10SM CLR 08/05 A2988 RMK AO1
KLHM 251415Z AUTO 08003KT 10SM CLR 07/04 A2987 RMK AO1
KLHM 251355Z AUTO 09004KT 10SM CLR 08/03 A2988 RMK AO1
KLHM 251335Z AUTO 10003KT 10SM CLR 09/03 A2987 RMK AO1
KLHM 251315Z AUTO 08005KT 10SM CLR 08/04 A2987 RMK AO1
KLHM 251255Z AUTO 05005KT 10SM CLR 08/04 A2987 RMK AO1
KLHM 251235Z AUTO 04003KT 10SM CLR 10/05 A2986 RMK AO1
KLHM 251215Z AUTO 00000KT 10SM CLR 10/04 A2986 RMK AO1
KLHM 251155Z AUTO 33004KT 10SM CLR 10/04 A2985 RMK AO1
KLHM 251135Z AUTO 34005KT 10SM CLR 10/04 A2985 RMK AO1
KLHM 251115Z AUTO 00000KT 10SM CLR 11/05 A2985 RMK AO1
KLHM 251055Z AUTO 30003KT 10SM CLR 11/05 A2984 RMK AO1
KLHM 251035Z AUTO 00000KT 10SM CLR 11/05 A2984 RMK AO1
KLHM 251015Z AUTO 21003KT 7SM CLR 13/05 A2984 RMK AO1
KLHM 250955Z AUTO 00000KT 10SM CLR 12/05 A2984 RMK AO1
KLHM 250935Z AUTO 09005KT 10SM CLR 11/05 A2984 RMK AO1
KLHM 250915Z AUTO 10004KT 10SM CLR 11/05 A2984 RMK AO1
KLHM 250855Z AUTO 07004KT 10SM CLR 13/05 A2984 RMK AO1
KLHM 250835Z AUTO 08005KT 10SM CLR 11/05 A2984 RMK AO1
KLHM 250815Z AUTO 06005KT 10SM CLR 11/06 A2983 RMK AO1
KLHM 250755Z AUTO 04003KT 5SM CLR 12/05 A2984 RMK AO1
KLHM 250735Z AUTO 04004KT 7SM CLR 11/05 A2983 RMK AO1
KLHM 250715Z AUTO 00000KT 10SM CLR 13/06 A2983 RMK AO1
KLHM 250655Z AUTO 00000KT 10SM CLR 13/06 A2983 RMK AO1
KLHM 250635Z AUTO 00000KT 10SM CLR 14/05 A2982 RMK AO1
KLHM 250615Z AUTO 09003KT 10SM CLR 17/06 A2982 RMK AO1
KLHM 250555Z AUTO 08003KT 10SM CLR 14/05 A2981 RMK AO1
KLHM 250535Z AUTO 08005KT 10SM CLR 13/06 A2981 RMK AO1
KLHM 250515Z AUTO 06004KT 10SM CLR 13/06 A2981 RMK AO1
KLHM 250455Z AUTO 07004KT 10SM CLR 13/06 A2981 RMK AO1
KLHM 250435Z AUTO 00000KT 10SM CLR 13/06 A2980 RMK AO1
KLHM 250415Z AUTO 00000KT 10SM CLR 14/06 A2980 RMK AO1
KLHM 250355Z AUTO 10004KT 10SM CLR 15/06 A2980 RMK AO1
KLHM 250335Z AUTO 08005KT 10SM CLR 16/06 A2979 RMK AO1
KLHM 250315Z AUTO 05004KT 10SM CLR 16/06 A2979 RMK AO1
KLHM 250255Z AUTO 00000KT 10SM CLR 22/06 A2979 RMK AO1
KLHM 250235Z AUTO 00000KT 10SM CLR 22/06 A2978 RMK AO1
KLHM 250215Z AUTO 00000KT 10SM CLR 26/06 A2978 RMK AO1
KLHM 250155Z AUTO 00000KT 10SM CLR 27/05 A2978 RMK AO1
KLHM 250135Z AUTO 00000KT 10SM CLR 29/05 A2978 RMK AO1
KLHM 250115Z AUTO 00000KT 10SM CLR 30/05 A2978 RMK AO1
KLHM 250055Z AUTO 30003KT 10SM CLR 31/05 A2978 RMK AO1
KLHM 250035Z AUTO 32004KT 10SM CLR 31/04 A2978 RMK AO1
KLHM 250015Z AUTO 30006KT 10SM CLR 31/03 A2978 RMK AO1
KLHM 242355Z AUTO 30005KT 10SM CLR 31/02 A2978 RMK AO1
KLHM 242335Z AUTO 30004KT 10SM CLR 31/03 A2978 RMK AO1
KLHM 242315Z AUTO 31004KT 10SM CLR 31/04 A2978 RMK AO1
KLHM 242255Z AUTO 32006KT 10SM CLR 31/03 A2979 RMK AO1
KLHM 242235Z AUTO 34005KT 10SM CLR 31/04 A2979 RMK AO1
KLHM 242215Z AUTO 00000KT 10SM CLR 31/04 A2979 RMK AO1
KLHM 242155Z AUTO 34004KT 10SM CLR 31/04 A2980 RMK AO1
KLHM 242135Z AUTO 32006KT 10SM CLR 30/05 A2980 RMK AO1
KLHM 242115Z AUTO 34007KT 10SM CLR 30/05 A2981 RMK AO1
KLHM 242055Z AUTO 30006KT 10SM CLR 30/05 A2982 RMK AO1
KLHM 242035Z AUTO 29006KT 10SM CLR 29/05 A2982 RMK AO1
KLHM 242015Z AUTO 33005KT 10SM CLR 28/06 A2983 RMK AO1
KLHM 241955Z AUTO 35003KT 10SM CLR 28/05 A2983 RMK AO1
KLHM 241935Z AUTO 27003KT 10SM CLR 27/05 A2984 RMK AO1
KLHM 241915Z AUTO 28004KT 10SM CLR 27/05 A2984 RMK AO1
KLHM 241855Z AUTO 31005KT 10SM CLR 26/07 A2985 RMK AO1
KLHM 241835Z AUTO 28004KT 10SM CLR 25/08 A2985 RMK AO1
KLHM 241815Z AUTO 32006KT 10SM CLR 24/07 A2985 RMK AO1
KLHM 241755Z AUTO 28005KT 10SM CLR 23/03 A2985 RMK AO1